sensor_id;sensor_type;location;lat;lon;timestamp;pressure;altitude;pressure_sealevel;temperature;humidity
62946;BME280;52164;52.212;-1.010;2022-09-09T00:00:37;99304.81;;;14.63;77.73
62946;BME280;52164;52.212;-1.010;2022-09-09T00:03:16;99308.20;;;14.57;77.85
62946;BME280;52164;52.212;-1.010;2022-09-09T00:08:35;99305.52;;;14.47;77.97
62946;BME280;52164;52.212;-1.010;2022-09-09T00:11:07;99310.49;;;14.43;78.00
62946;BME280;52164;52.212;-1.010;2022-09-09T00:13:39;99310.40;;;14.40;78.01
62946;BME280;52164;52.212;-1.010;2022-09-09T00:16:10;99315.72;;;14.38;78.08
62946;BME280;52164;52.212;-1.010;2022-09-09T00:20:52;99317.58;;;14.36;78.13
62946;BME280;52164;52.212;-1.010;2022-09-09T00:21:25;99318.58;;;14.33;78.27
62946;BME280;52164;52.212;-1.010;2022-09-09T00:23:53;99320.52;;;14.34;78.11
62946;BME280;52164;52.212;-1.010;2022-09-09T00:28:46;99319.75;;;14.35;78.25
62946;BME280;52164;52.212;-1.010;2022-09-09T00:31:16;99316.32;;;14.36;78.50
62946;BME280;52164;52.212;-1.010;2022-09-09T00:33:44;99316.09;;;14.37;78.51
62946;BME280;52164;52.212;-1.010;2022-09-09T00:36:14;99312.84;;;14.37;78.39
62946;BME280;52164;52.212;-1.010;2022-09-09T00:38:43;99312.63;;;14.39;78.47
62946;BME280;52164;52.212;-1.010;2022-09-09T00:41:17;99308.98;;;14.40;78.41
62946;BME280;52164;52.212;-1.010;2022-09-09T00:43:46;99310.56;;;14.41;78.23
62946;BME280;52164;52.212;-1.010;2022-09-09T00:46:26;99310.02;;;14.41;78.15
62946;BME280;52164;52.212;-1.010;2022-09-09T00:51:09;99311.63;;;14.41;78.23
62946;BME280;52164;52.212;-1.010;2022-09-09T00:52:01;99316.65;;;14.42;78.13
62946;BME280;52164;52.212;-1.010;2022-09-09T00:54:31;99314.16;;;14.41;78.32
62946;BME280;52164;52.212;-1.010;2022-09-09T00:57:04;99315.27;;;14.40;78.28
62946;BME280;52164;52.212;-1.010;2022-09-09T01:01:56;99320.09;;;14.35;78.43
62946;BME280;52164;52.212;-1.010;2022-09-09T01:04:27;99318.69;;;14.34;78.41
62946;BME280;52164;52.212;-1.010;2022-09-09T01:06:56;99319.61;;;14.34;78.69
62946;BME280;52164;52.212;-1.010;2022-09-09T01:09:29;99320.37;;;14.33;78.61
62946;BME280;52164;52.212;-1.010;2022-09-09T01:18:17;99326.50;;;14.32;78.81
62946;BME280;52164;52.212;-1.010;2022-09-09T01:20:04;99323.43;;;14.33;78.76
62946;BME280;52164;52.212;-1.010;2022-09-09T01:22:34;99321.77;;;14.34;79.09
62946;BME280;52164;52.212;-1.010;2022-09-09T01:26:08;99322.92;;;14.36;79.17
62946;BME280;52164;52.212;-1.010;2022-09-09T01:27:46;99321.76;;;14.39;79.22
62946;BME280;52164;52.212;-1.010;2022-09-09T01:30:14;99322.55;;;14.42;79.30
62946;BME280;52164;52.212;-1.010;2022-09-09T01:35:07;99325.20;;;14.49;79.41
62946;BME280;52164;52.212;-1.010;2022-09-09T01:37:33;99327.77;;;14.52;79.36
62946;BME280;52164;52.212;-1.010;2022-09-09T01:39:58;99326.10;;;14.54;79.33
62946;BME280;52164;52.212;-1.010;2022-09-09T01:42:24;99326.23;;;14.55;79.39
62946;BME280;52164;52.212;-1.010;2022-09-09T01:44:50;99324.00;;;14.57;79.38
62946;BME280;52164;52.212;-1.010;2022-09-09T01:47:15;99325.72;;;14.59;79.42
62946;BME280;52164;52.212;-1.010;2022-09-09T01:49:41;99328.73;;;14.61;79.33
62946;BME280;52164;52.212;-1.010;2022-09-09T01:52:06;99327.20;;;14.64;79.37
62946;BME280;52164;52.212;-1.010;2022-09-09T01:54:33;99326.79;;;14.66;79.36
62946;BME280;52164;52.212;-1.010;2022-09-09T01:59:14;99325.23;;;14.69;79.49
62946;BME280;52164;52.212;-1.010;2022-09-09T01:59:48;99322.64;;;14.72;79.42
62946;BME280;52164;52.212;-1.010;2022-09-09T02:02:18;99322.57;;;14.73;79.47
62946;BME280;52164;52.212;-1.010;2022-09-09T02:04:45;99321.08;;;14.75;79.39
62946;BME280;52164;52.212;-1.010;2022-09-09T02:07:31;99320.35;;;14.75;79.32
62946;BME280;52164;52.212;-1.010;2022-09-09T02:10:00;99316.40;;;14.75;79.36
62946;BME280;52164;52.212;-1.010;2022-09-09T02:12:26;99316.72;;;14.76;79.35
62946;BME280;52164;52.212;-1.010;2022-09-09T02:14:55;99314.02;;;14.77;79.30
62946;BME280;52164;52.212;-1.010;2022-09-09T02:17:29;99318.53;;;14.75;79.17
62946;BME280;52164;52.212;-1.010;2022-09-09T02:19:59;99317.55;;;14.73;79.18
62946;BME280;52164;52.212;-1.010;2022-09-09T02:22:27;99321.37;;;14.72;79.21
62946;BME280;52164;52.212;-1.010;2022-09-09T02:24:55;99326.30;;;14.70;79.19
62946;BME280;52164;52.212;-1.010;2022-09-09T02:27:23;99325.56;;;14.65;79.09
62946;BME280;52164;52.212;-1.010;2022-09-09T02:29:48;99323.56;;;14.60;79.15
62946;BME280;52164;52.212;-1.010;2022-09-09T02:32:16;99324.20;;;14.52;79.28
62946;BME280;52164;52.212;-1.010;2022-09-09T02:34:43;99322.70;;;14.43;79.57
62946;BME280;52164;52.212;-1.010;2022-09-09T02:37:10;99326.67;;;14.38;79.61
62946;BME280;52164;52.212;-1.010;2022-09-09T02:39:36;99328.64;;;14.32;79.63
62946;BME280;52164;52.212;-1.010;2022-09-09T02:42:03;99328.48;;;14.26;79.62
62946;BME280;52164;52.212;-1.010;2022-09-09T02:44:29;99329.08;;;14.19;79.82
62946;BME280;52164;52.212;-1.010;2022-09-09T02:47:29;99332.29;;;14.14;79.90
62946;BME280;52164;52.212;-1.010;2022-09-09T02:49:47;99330.65;;;14.09;80.14
62946;BME280;52164;52.212;-1.010;2022-09-09T02:52:18;99328.77;;;14.07;80.19
62946;BME280;52164;52.212;-1.010;2022-09-09T02:54:45;99331.98;;;14.07;80.20
62946;BME280;52164;52.212;-1.010;2022-09-09T02:59:38;99335.00;;;14.08;80.02
62946;BME280;52164;52.212;-1.010;2022-09-09T03:02:03;99333.91;;;14.09;80.11
62946;BME280;52164;52.212;-1.010;2022-09-09T03:04:29;99334.44;;;14.09;80.13
62946;BME280;52164;52.212;-1.010;2022-09-09T03:06:56;99335.70;;;14.09;80.20
62946;BME280;52164;52.212;-1.010;2022-09-09T03:09:22;99339.84;;;14.08;80.08
62946;BME280;52164;52.212;-1.010;2022-09-09T03:11:47;99339.73;;;14.06;79.95
62946;BME280;52164;52.212;-1.010;2022-09-09T03:14:14;99341.73;;;14.05;80.12
62946;BME280;52164;52.212;-1.010;2022-09-09T03:16:40;99342.52;;;14.04;79.92
62946;BME280;52164;52.212;-1.010;2022-09-09T03:19:07;99346.61;;;13.99;80.14
62946;BME280;52164;52.212;-1.010;2022-09-09T03:21:34;99342.61;;;13.95;80.32
62946;BME280;52164;52.212;-1.010;2022-09-09T03:24:00;99342.61;;;13.96;80.42
62946;BME280;52164;52.212;-1.010;2022-09-09T03:26:28;99343.29;;;13.97;80.43
62946;BME280;52164;52.212;-1.010;2022-09-09T03:28:53;99344.50;;;13.98;80.41
62946;BME280;52164;52.212;-1.010;2022-09-09T03:31:19;99342.27;;;14.00;80.36
62946;BME280;52164;52.212;-1.010;2022-09-09T03:33:45;99343.54;;;14.00;80.45
62946;BME280;52164;52.212;-1.010;2022-09-09T03:36:11;99341.44;;;13.98;80.45
62946;BME280;52164;52.212;-1.010;2022-09-09T03:38:36;99345.60;;;13.97;80.42
62946;BME280;52164;52.212;-1.010;2022-09-09T03:41:01;99345.23;;;13.98;80.55
62946;BME280;52164;52.212;-1.010;2022-09-09T03:43:27;99343.17;;;14.00;80.61
62946;BME280;52164;52.212;-1.010;2022-09-09T03:45:53;99344.77;;;14.01;80.71
62946;BME280;52164;52.212;-1.010;2022-09-09T03:48:22;99347.07;;;14.02;80.80
62946;BME280;52164;52.212;-1.010;2022-09-09T03:50:48;99348.08;;;14.04;80.69
62946;BME280;52164;52.212;-1.010;2022-09-09T03:53:14;99351.45;;;14.05;80.71
62946;BME280;52164;52.212;-1.010;2022-09-09T03:55:43;99353.92;;;14.06;80.98
62946;BME280;52164;52.212;-1.010;2022-09-09T03:58:09;99358.50;;;14.08;81.02
62946;BME280;52164;52.212;-1.010;2022-09-09T04:00:35;99358.80;;;14.10;80.91
62946;BME280;52164;52.212;-1.010;2022-09-09T04:03:01;99363.48;;;14.10;81.28
62946;BME280;52164;52.212;-1.010;2022-09-09T04:05:26;99368.63;;;14.12;81.26
62946;BME280;52164;52.212;-1.010;2022-09-09T04:07:52;99370.17;;;14.08;81.38
62946;BME280;52164;52.212;-1.010;2022-09-09T04:10:17;99379.39;;;14.12;81.47
62946;BME280;52164;52.212;-1.010;2022-09-09T04:12:43;99382.22;;;14.13;81.29
62946;BME280;52164;52.212;-1.010;2022-09-09T04:15:09;99382.95;;;14.13;81.57
62946;BME280;52164;52.212;-1.010;2022-09-09T04:17:35;99382.05;;;14.12;81.59
62946;BME280;52164;52.212;-1.010;2022-09-09T04:20:01;99383.95;;;14.14;81.85
62946;BME280;52164;52.212;-1.010;2022-09-09T04:22:27;99386.45;;;14.15;81.87
62946;BME280;52164;52.212;-1.010;2022-09-09T04:24:53;99387.45;;;14.18;81.91
62946;BME280;52164;52.212;-1.010;2022-09-09T04:27:18;99390.44;;;14.19;81.91
62946;BME280;52164;52.212;-1.010;2022-09-09T04:29:43;99392.91;;;14.21;81.83
62946;BME280;52164;52.212;-1.010;2022-09-09T04:32:09;99392.89;;;14.21;81.57
62946;BME280;52164;52.212;-1.010;2022-09-09T04:34:34;99394.73;;;14.20;81.89
62946;BME280;52164;52.212;-1.010;2022-09-09T04:36:59;99395.02;;;14.22;81.97
62946;BME280;52164;52.212;-1.010;2022-09-09T04:39:29;99397.91;;;14.21;81.82
62946;BME280;52164;52.212;-1.010;2022-09-09T04:41:54;99400.11;;;14.20;81.84
62946;BME280;52164;52.212;-1.010;2022-09-09T04:44:21;99403.88;;;14.20;81.74
62946;BME280;52164;52.212;-1.010;2022-09-09T04:46:46;99400.90;;;14.18;81.85
62946;BME280;52164;52.212;-1.010;2022-09-09T04:49:11;99397.88;;;14.17;82.09
62946;BME280;52164;52.212;-1.010;2022-09-09T04:51:36;99400.88;;;14.18;82.24
62946;BME280;52164;52.212;-1.010;2022-09-09T04:54:01;99397.80;;;14.19;82.17
62946;BME280;52164;52.212;-1.010;2022-09-09T04:56:27;99398.31;;;14.20;82.22
62946;BME280;52164;52.212;-1.010;2022-09-09T04:58:53;99399.95;;;14.19;82.30
62946;BME280;52164;52.212;-1.010;2022-09-09T05:01:19;99404.59;;;14.20;82.26
62946;BME280;52164;52.212;-1.010;2022-09-09T05:03:46;99410.46;;;14.21;82.34
62946;BME280;52164;52.212;-1.010;2022-09-09T05:06:13;99408.46;;;14.23;82.29
62946;BME280;52164;52.212;-1.010;2022-09-09T05:08:40;99412.00;;;14.24;82.25
62946;BME280;52164;52.212;-1.010;2022-09-09T05:11:14;99414.52;;;14.24;82.07
62946;BME280;52164;52.212;-1.010;2022-09-09T05:13:41;99417.41;;;14.23;82.42
62946;BME280;52164;52.212;-1.010;2022-09-09T05:16:06;99419.52;;;14.24;82.45
62946;BME280;52164;52.212;-1.010;2022-09-09T05:18:31;99421.29;;;14.25;82.38
62946;BME280;52164;52.212;-1.010;2022-09-09T05:20:58;99423.48;;;14.23;82.17
62946;BME280;52164;52.212;-1.010;2022-09-09T05:23:24;99425.56;;;14.21;82.27
62946;BME280;52164;52.212;-1.010;2022-09-09T05:25:57;99428.11;;;14.20;82.28
62946;BME280;52164;52.212;-1.010;2022-09-09T05:28:23;99427.22;;;14.19;82.40
62946;BME280;52164;52.212;-1.010;2022-09-09T05:31:06;99430.23;;;14.21;82.64
62946;BME280;52164;52.212;-1.010;2022-09-09T05:33:34;99430.21;;;14.21;82.48
62946;BME280;52164;52.212;-1.010;2022-09-09T05:36:01;99431.02;;;14.19;82.45
62946;BME280;52164;52.212;-1.010;2022-09-09T05:38:28;99431.90;;;14.19;82.57
62946;BME280;52164;52.212;-1.010;2022-09-09T05:40:54;99431.77;;;14.18;82.58
62946;BME280;52164;52.212;-1.010;2022-09-09T05:43:21;99433.77;;;14.17;82.57
62946;BME280;52164;52.212;-1.010;2022-09-09T05:45:47;99435.40;;;14.16;82.68
62946;BME280;52164;52.212;-1.010;2022-09-09T05:48:13;99432.60;;;14.20;82.81
62946;BME280;52164;52.212;-1.010;2022-09-09T05:50:40;99435.20;;;14.23;82.66
62946;BME280;52164;52.212;-1.010;2022-09-09T05:53:05;99442.17;;;14.23;82.69
62946;BME280;52164;52.212;-1.010;2022-09-09T05:55:31;99443.06;;;14.23;82.69
62946;BME280;52164;52.212;-1.010;2022-09-09T05:57:56;99445.41;;;14.23;82.57
62946;BME280;52164;52.212;-1.010;2022-09-09T06:00:25;99446.91;;;14.21;82.46
62946;BME280;52164;52.212;-1.010;2022-09-09T06:02:51;99451.67;;;14.18;82.38
62946;BME280;52164;52.212;-1.010;2022-09-09T06:05:17;99453.27;;;14.13;82.44
62946;BME280;52164;52.212;-1.010;2022-09-09T06:07:42;99453.73;;;14.09;82.49
62946;BME280;52164;52.212;-1.010;2022-09-09T06:10:12;99454.84;;;14.08;82.61
62946;BME280;52164;52.212;-1.010;2022-09-09T06:12:39;99453.42;;;14.08;82.83
62946;BME280;52164;52.212;-1.010;2022-09-09T06:15:04;99455.70;;;14.09;83.12
62946;BME280;52164;52.212;-1.010;2022-09-09T06:17:30;99457.08;;;14.11;82.78
62946;BME280;52164;52.212;-1.010;2022-09-09T06:19:55;99461.02;;;14.11;82.70
62946;BME280;52164;52.212;-1.010;2022-09-09T06:22:20;99463.98;;;14.14;82.94
62946;BME280;52164;52.212;-1.010;2022-09-09T06:24:48;99466.62;;;14.16;82.70
62946;BME280;52164;52.212;-1.010;2022-09-09T06:27:13;99466.02;;;14.18;82.36
62946;BME280;52164;52.212;-1.010;2022-09-09T06:29:39;99465.77;;;14.20;82.60
62946;BME280;52164;52.212;-1.010;2022-09-09T06:32:04;99468.86;;;14.25;82.42
62946;BME280;52164;52.212;-1.010;2022-09-09T06:34:30;99468.91;;;14.29;82.39
62946;BME280;52164;52.212;-1.010;2022-09-09T06:36:55;99466.42;;;14.34;82.27
62946;BME280;52164;52.212;-1.010;2022-09-09T06:39:22;99473.19;;;14.42;82.41
62946;BME280;52164;52.212;-1.010;2022-09-09T06:41:48;99476.71;;;14.49;81.94
62946;BME280;52164;52.212;-1.010;2022-09-09T06:44:13;99478.98;;;14.51;81.83
62946;BME280;52164;52.212;-1.010;2022-09-09T06:46:40;99484.29;;;14.53;81.74
62946;BME280;52164;52.212;-1.010;2022-09-09T06:49:06;99485.69;;;14.54;81.33
62946;BME280;52164;52.212;-1.010;2022-09-09T06:51:32;99486.14;;;14.52;81.20
62946;BME280;52164;52.212;-1.010;2022-09-09T06:53:59;99490.40;;;14.48;81.27
62946;BME280;52164;52.212;-1.010;2022-09-09T06:56:26;99487.80;;;14.45;81.28
62946;BME280;52164;52.212;-1.010;2022-09-09T06:58:53;99489.09;;;14.43;81.25
62946;BME280;52164;52.212;-1.010;2022-09-09T07:01:21;99487.28;;;14.44;81.24
62946;BME280;52164;52.212;-1.010;2022-09-09T07:03:47;99492.16;;;14.43;81.56
62946;BME280;52164;52.212;-1.010;2022-09-09T07:06:14;99494.89;;;14.41;81.44
62946;BME280;52164;52.212;-1.010;2022-09-09T07:08:42;99500.14;;;14.40;81.45
62946;BME280;52164;52.212;-1.010;2022-09-09T07:11:10;99503.56;;;14.40;81.49
62946;BME280;52164;52.212;-1.010;2022-09-09T07:13:36;99504.82;;;14.40;81.47
62946;BME280;52164;52.212;-1.010;2022-09-09T07:16:17;99509.60;;;14.42;81.58
62946;BME280;52164;52.212;-1.010;2022-09-09T07:18:42;99514.23;;;14.43;81.44
62946;BME280;52164;52.212;-1.010;2022-09-09T07:21:09;99514.20;;;14.44;81.53
62946;BME280;52164;52.212;-1.010;2022-09-09T07:23:34;99515.63;;;14.45;81.45
62946;BME280;52164;52.212;-1.010;2022-09-09T07:26:02;99517.94;;;14.45;81.52
62946;BME280;52164;52.212;-1.010;2022-09-09T07:28:28;99522.67;;;14.49;81.41
62946;BME280;52164;52.212;-1.010;2022-09-09T07:30:57;99523.83;;;14.52;81.21
62946;BME280;52164;52.212;-1.010;2022-09-09T07:33:23;99521.65;;;14.53;81.17
62946;BME280;52164;52.212;-1.010;2022-09-09T07:35:49;99521.39;;;14.55;81.12
62946;BME280;52164;52.212;-1.010;2022-09-09T07:38:14;99521.77;;;14.61;81.12
62946;BME280;52164;52.212;-1.010;2022-09-09T07:40:40;99521.33;;;14.70;81.09
62946;BME280;52164;52.212;-1.010;2022-09-09T07:43:05;99519.73;;;14.79;80.85
62946;BME280;52164;52.212;-1.010;2022-09-09T07:45:31;99527.34;;;14.88;80.85
62946;BME280;52164;52.212;-1.010;2022-09-09T07:47:58;99528.30;;;14.97;80.71
62946;BME280;52164;52.212;-1.010;2022-09-09T07:50:24;99529.88;;;15.09;80.62
62946;BME280;52164;52.212;-1.010;2022-09-09T07:52:50;99531.86;;;15.20;80.58
62946;BME280;52164;52.212;-1.010;2022-09-09T07:55:16;99535.04;;;15.26;80.29
62946;BME280;52164;52.212;-1.010;2022-09-09T07:57:41;99536.08;;;15.33;80.24
62946;BME280;52164;52.212;-1.010;2022-09-09T08:00:07;99541.61;;;15.39;80.05
62946;BME280;52164;52.212;-1.010;2022-09-09T08:02:33;99542.90;;;15.48;79.74
62946;BME280;52164;52.212;-1.010;2022-09-09T08:04:58;99547.38;;;15.59;79.45
62946;BME280;52164;52.212;-1.010;2022-09-09T08:07:23;99548.20;;;15.71;79.27
62946;BME280;52164;52.212;-1.010;2022-09-09T08:09:49;99552.92;;;15.80;78.91
62946;BME280;52164;52.212;-1.010;2022-09-09T08:15:05;99562.67;;;15.84;78.57
62946;BME280;52164;52.212;-1.010;2022-09-09T08:17:31;99563.42;;;15.88;78.58
62946;BME280;52164;52.212;-1.010;2022-09-09T08:19:56;99568.42;;;15.94;78.26
62946;BME280;52164;52.212;-1.010;2022-09-09T08:22:29;99567.37;;;15.99;77.84
62946;BME280;52164;52.212;-1.010;2022-09-09T08:24:55;99568.60;;;16.04;77.83
62946;BME280;52164;52.212;-1.010;2022-09-09T08:27:22;99571.73;;;16.07;77.81
62946;BME280;52164;52.212;-1.010;2022-09-09T08:29:49;99573.05;;;16.06;77.65
62946;BME280;52164;52.212;-1.010;2022-09-09T08:32:15;99575.46;;;16.04;77.32
62946;BME280;52164;52.212;-1.010;2022-09-09T08:34:41;99575.30;;;15.98;77.17
62946;BME280;52164;52.212;-1.010;2022-09-09T08:37:06;99573.46;;;15.94;77.28
62946;BME280;52164;52.212;-1.010;2022-09-09T08:39:35;99577.21;;;16.00;77.05
62946;BME280;52164;52.212;-1.010;2022-09-09T08:42:06;99579.38;;;16.10;76.87
62946;BME280;52164;52.212;-1.010;2022-09-09T08:44:49;99576.46;;;16.20;76.78
62946;BME280;52164;52.212;-1.010;2022-09-09T08:52:12;99580.41;;;16.53;76.27
62946;BME280;52164;52.212;-1.010;2022-09-09T08:54:41;99580.46;;;16.57;75.98
62946;BME280;52164;52.212;-1.010;2022-09-09T08:57:07;99586.95;;;16.56;75.60
62946;BME280;52164;52.212;-1.010;2022-09-09T08:59:36;99593.60;;;16.57;75.40
62946;BME280;52164;52.212;-1.010;2022-09-09T09:09:53;99608.90;;;16.85;75.11
62946;BME280;52164;52.212;-1.010;2022-09-09T09:12:30;99608.66;;;17.00;74.72
62946;BME280;52164;52.212;-1.010;2022-09-09T09:15:00;99607.44;;;17.03;74.59
62946;BME280;52164;52.212;-1.010;2022-09-09T09:17:26;99605.77;;;17.09;74.50
62946;BME280;52164;52.212;-1.010;2022-09-09T09:19:52;99603.96;;;17.27;74.05
62946;BME280;52164;52.212;-1.010;2022-09-09T09:25:52;99620.16;;;17.40;73.33
62946;BME280;52164;52.212;-1.010;2022-09-09T09:27:33;99627.20;;;17.44;72.96
62946;BME280;52164;52.212;-1.010;2022-09-09T09:30:01;99631.20;;;17.60;72.89
62946;BME280;52164;52.212;-1.010;2022-09-09T09:32:28;99632.32;;;17.68;72.69
62946;BME280;52164;52.212;-1.010;2022-09-09T09:34:56;99634.92;;;17.70;72.55
62946;BME280;52164;52.212;-1.010;2022-09-09T09:37:26;99635.83;;;17.70;72.38
62946;BME280;52164;52.212;-1.010;2022-09-09T09:39:53;99633.21;;;17.80;72.00
62946;BME280;52164;52.212;-1.010;2022-09-09T09:42:19;99637.02;;;17.98;71.93
62946;BME280;52164;52.212;-1.010;2022-09-09T09:44:44;99639.91;;;18.14;71.83
62946;BME280;52164;52.212;-1.010;2022-09-09T09:47:13;99636.98;;;18.14;71.56
62946;BME280;52164;52.212;-1.010;2022-09-09T09:49:39;99641.69;;;18.07;71.52
62946;BME280;52164;52.212;-1.010;2022-09-09T09:52:15;99639.05;;;18.01;71.48
62946;BME280;52164;52.212;-1.010;2022-09-09T09:54:45;99643.14;;;18.02;71.41
62946;BME280;52164;52.212;-1.010;2022-09-09T09:57:11;99643.98;;;18.07;71.50
62946;BME280;52164;52.212;-1.010;2022-09-09T09:59:37;99642.74;;;18.19;71.51
62946;BME280;52164;52.212;-1.010;2022-09-09T10:02:13;99644.80;;;18.26;71.35
62946;BME280;52164;52.212;-1.010;2022-09-09T10:04:38;99641.71;;;18.34;71.10
62946;BME280;52164;52.212;-1.010;2022-09-09T10:07:12;99642.39;;;18.43;70.64
62946;BME280;52164;52.212;-1.010;2022-09-09T10:09:38;99646.69;;;18.51;70.32
62946;BME280;52164;52.212;-1.010;2022-09-09T10:13:14;99648.65;;;18.60;69.95
62946;BME280;52164;52.212;-1.010;2022-09-09T10:17:53;99647.16;;;18.79;69.46
62946;BME280;52164;52.212;-1.010;2022-09-09T10:20:25;99649.27;;;18.85;69.22
62946;BME280;52164;52.212;-1.010;2022-09-09T10:23:04;99649.38;;;18.82;69.19
62946;BME280;52164;52.212;-1.010;2022-09-09T10:25:38;99653.25;;;18.81;68.53
62946;BME280;52164;52.212;-1.010;2022-09-09T10:28:24;99652.94;;;18.84;68.38
62946;BME280;52164;52.212;-1.010;2022-09-09T10:33:22;99659.15;;;19.02;68.58
62946;BME280;52164;52.212;-1.010;2022-09-09T10:35:58;99659.80;;;19.07;68.30
62946;BME280;52164;52.212;-1.010;2022-09-09T10:39:01;99664.77;;;19.09;68.22
62946;BME280;52164;52.212;-1.010;2022-09-09T10:41:18;99662.46;;;19.05;68.40
62946;BME280;52164;52.212;-1.010;2022-09-09T10:48:41;99663.11;;;19.17;68.04
62946;BME280;52164;52.212;-1.010;2022-09-09T10:51:45;99666.10;;;19.19;67.71
62946;BME280;52164;52.212;-1.010;2022-09-09T10:54:30;99672.45;;;19.26;67.45
62946;BME280;52164;52.212;-1.010;2022-09-09T10:56:42;99669.60;;;19.17;67.27
62946;BME280;52164;52.212;-1.010;2022-09-09T10:59:17;99670.69;;;19.14;67.53
62946;BME280;52164;52.212;-1.010;2022-09-09T11:01:45;99673.80;;;19.13;67.37
62946;BME280;52164;52.212;-1.010;2022-09-09T11:04:16;99672.67;;;19.06;67.20
62946;BME280;52164;52.212;-1.010;2022-09-09T11:06:47;99680.51;;;19.05;67.55
62946;BME280;52164;52.212;-1.010;2022-09-09T11:09:14;99682.57;;;19.04;66.95
62946;BME280;52164;52.212;-1.010;2022-09-09T11:11:43;99675.83;;;19.09;66.59
62946;BME280;52164;52.212;-1.010;2022-09-09T11:14:14;99676.63;;;19.25;66.58
62946;BME280;52164;52.212;-1.010;2022-09-09T11:16:47;99675.64;;;19.53;66.59
62946;BME280;52164;52.212;-1.010;2022-09-09T11:19:33;99666.95;;;19.60;65.70
62946;BME280;52164;52.212;-1.010;2022-09-09T11:22:06;99673.74;;;19.51;66.05
62946;BME280;52164;52.212;-1.010;2022-09-09T11:24:41;99677.67;;;19.41;66.18
62946;BME280;52164;52.212;-1.010;2022-09-09T11:32:43;99684.23;;;18.92;66.47
62946;BME280;52164;52.212;-1.010;2022-09-09T11:35:47;99680.09;;;18.88;66.68
62946;BME280;52164;52.212;-1.010;2022-09-09T11:38:04;99677.03;;;19.06;66.44
62946;BME280;52164;52.212;-1.010;2022-09-09T11:40:34;99676.90;;;19.38;66.35
62946;BME280;52164;52.212;-1.010;2022-09-09T11:43:01;99677.60;;;19.72;65.97
62946;BME280;52164;52.212;-1.010;2022-09-09T11:45:29;99676.06;;;19.88;65.16
62946;BME280;52164;52.212;-1.010;2022-09-09T11:59:20;99679.78;;;21.32;59.92
62946;BME280;52164;52.212;-1.010;2022-09-09T12:01:54;99674.41;;;21.82;58.42
62946;BME280;52164;52.212;-1.010;2022-09-09T12:04:28;99680.00;;;22.01;58.13
62946;BME280;52164;52.212;-1.010;2022-09-09T12:07:01;99677.42;;;22.22;57.55
62946;BME280;52164;52.212;-1.010;2022-09-09T12:09:47;99677.52;;;22.36;57.98
62946;BME280;52164;52.212;-1.010;2022-09-09T12:12:27;99679.14;;;22.48;58.02
62946;BME280;52164;52.212;-1.010;2022-09-09T12:15:17;99686.17;;;22.60;57.80
62946;BME280;52164;52.212;-1.010;2022-09-09T12:20:22;99686.09;;;22.76;56.91
62946;BME280;52164;52.212;-1.010;2022-09-09T12:25:54;99688.48;;;22.87;55.65
62946;BME280;52164;52.212;-1.010;2022-09-09T12:28:39;99686.10;;;22.84;55.57
62946;BME280;52164;52.212;-1.010;2022-09-09T12:34:09;99690.70;;;22.95;55.03
62946;BME280;52164;52.212;-1.010;2022-09-09T12:36:37;99685.29;;;23.11;54.42
62946;BME280;52164;52.212;-1.010;2022-09-09T12:39:27;99686.21;;;23.36;54.24
62946;BME280;52164;52.212;-1.010;2022-09-09T12:41:55;99690.37;;;23.54;52.85
62946;BME280;52164;52.212;-1.010;2022-09-09T12:44:24;99688.40;;;23.36;53.43
62946;BME280;52164;52.212;-1.010;2022-09-09T12:46:51;99686.65;;;23.19;53.91
62946;BME280;52164;52.212;-1.010;2022-09-09T12:49:27;99684.69;;;23.13;53.84
62946;BME280;52164;52.212;-1.010;2022-09-09T12:51:54;99678.04;;;22.99;53.42
62946;BME280;52164;52.212;-1.010;2022-09-09T12:54:20;99680.84;;;22.90;53.57
62946;BME280;52164;52.212;-1.010;2022-09-09T12:56:47;99690.31;;;22.84;53.93
62946;BME280;52164;52.212;-1.010;2022-09-09T12:59:23;99692.52;;;22.72;53.91
62946;BME280;52164;52.212;-1.010;2022-09-09T13:01:58;99704.39;;;22.54;54.83
62946;BME280;52164;52.212;-1.010;2022-09-09T13:04:24;99715.55;;;22.17;55.56
62946;BME280;52164;52.212;-1.010;2022-09-09T13:06:49;99727.91;;;21.77;56.73
62946;BME280;52164;52.212;-1.010;2022-09-09T13:09:15;99735.90;;;21.29;57.79
62946;BME280;52164;52.212;-1.010;2022-09-09T13:11:42;99738.50;;;20.82;59.63
62946;BME280;52164;52.212;-1.010;2022-09-09T13:14:18;99732.82;;;20.39;60.98
62946;BME280;52164;52.212;-1.010;2022-09-09T13:16:56;99730.15;;;20.07;63.10
62946;BME280;52164;52.212;-1.010;2022-09-09T13:19:22;99723.56;;;19.83;64.32
62946;BME280;52164;52.212;-1.010;2022-09-09T13:21:51;99722.44;;;19.72;66.01
62946;BME280;52164;52.212;-1.010;2022-09-09T13:24:30;99724.41;;;19.66;66.88
62946;BME280;52164;52.212;-1.010;2022-09-09T13:26:57;99732.17;;;19.63;67.59
62946;BME280;52164;52.212;-1.010;2022-09-09T13:29:24;99740.77;;;19.57;66.53
62946;BME280;52164;52.212;-1.010;2022-09-09T13:31:50;99742.30;;;19.48;66.60
62946;BME280;52164;52.212;-1.010;2022-09-09T13:37:01;99738.39;;;19.35;67.29
62946;BME280;52164;52.212;-1.010;2022-09-09T13:39:27;99735.80;;;19.40;68.30
62946;BME280;52164;52.212;-1.010;2022-09-09T13:41:53;99735.90;;;19.53;68.70
62946;BME280;52164;52.212;-1.010;2022-09-09T13:44:24;99734.59;;;19.68;68.50
62946;BME280;52164;52.212;-1.010;2022-09-09T13:47:19;99728.73;;;20.06;68.69
62946;BME280;52164;52.212;-1.010;2022-09-09T13:49:45;99732.24;;;20.43;68.34
62946;BME280;52164;52.212;-1.010;2022-09-09T13:52:16;99736.79;;;20.39;68.18
62946;BME280;52164;52.212;-1.010;2022-09-09T13:54:47;99744.88;;;20.34;66.83
62946;BME280;52164;52.212;-1.010;2022-09-09T13:57:16;99749.49;;;20.18;66.31
62946;BME280;52164;52.212;-1.010;2022-09-09T13:59:43;99750.27;;;19.99;67.21
62946;BME280;52164;52.212;-1.010;2022-09-09T14:02:09;99757.23;;;19.87;67.80
62946;BME280;52164;52.212;-1.010;2022-09-09T14:04:34;99752.08;;;19.73;68.30
62946;BME280;52164;52.212;-1.010;2022-09-09T14:07:00;99760.43;;;19.62;69.73
62946;BME280;52164;52.212;-1.010;2022-09-09T14:09:27;99765.66;;;19.51;70.44
62946;BME280;52164;52.212;-1.010;2022-09-09T14:11:52;99769.36;;;19.42;70.70
62946;BME280;52164;52.212;-1.010;2022-09-09T14:14:17;99770.30;;;19.34;71.31